createdAt,value
2018-03-16T00:10:32.328Z,55
2018-03-16T00:25:32.368Z,48.3
2018-03-16T01:00:32.755Z,46.4
2018-03-16T01:15:32.818Z,47.4
2018-03-16T01:35:32.828Z,43.6
2018-03-16T02:40:32.730Z,56
2018-03-16T02:55:32.921Z,50.1
2018-03-16T03:10:42.140Z,60.2
2018-03-16T03:45:37.252Z,55.3
2018-03-16T04:20:37.288Z,54.7
2018-03-16T04:35:37.111Z,56
2018-03-16T04:50:38.314Z,55.4
2018-03-16T05:05:37.145Z,59.9
2018-03-16T05:25:37.199Z,64.2
2018-03-16T05:40:37.186Z,55
2018-03-16T06:15:37.236Z,20.9
2018-03-16T06:30:37.280Z,8.7
2018-03-16T06:45:37.441Z,9.4
2018-03-16T07:00:37.451Z,8.6
2018-03-16T07:20:37.473Z,6.6
2018-03-16T07:35:37.249Z,9
2018-03-16T07:50:37.366Z,5.3
2018-03-16T08:10:40.689Z,2.5
2018-03-16T08:40:40.779Z,4.1
2018-03-16T08:55:40.704Z,4.5
2018-03-16T09:15:40.734Z,3.7
2018-03-16T09:30:40.739Z,3.3
2018-03-16T09:45:40.805Z,2.9
2018-03-16T10:05:40.825Z,3
2018-03-16T10:20:41.069Z,2.1
2018-03-16T10:35:41.156Z,2.6
2018-03-16T10:55:41.104Z,2.4
2018-03-16T11:10:41.152Z,1.9
2018-03-16T11:25:41.057Z,5.8
2018-03-16T11:40:41.063Z,2.4
2018-03-16T12:00:41.319Z,2.8
2018-03-16T12:15:41.375Z,2.3
2018-03-16T12:30:41.121Z,3
2018-03-16T12:50:42.391Z,4.6
2018-03-16T13:05:42.735Z,4.4
2018-03-16T13:20:42.724Z,4
2018-03-16T13:40:42.511Z,2.8
2018-03-16T13:55:42.560Z,4.6
2018-03-16T14:10:42.559Z,3
2018-03-16T14:25:42.776Z,2.3
2018-03-16T14:45:42.578Z,5
2018-03-16T15:00:42.583Z,2.4
2018-03-16T15:15:42.674Z,2
2018-03-16T15:35:43.051Z,1
2018-03-16T15:50:42.612Z,1
2018-03-16T16:05:42.612Z,10.3
2018-03-16T16:25:42.621Z,8.4
2018-03-16T16:40:42.641Z,5.2
2018-03-16T16:55:42.610Z,9.3
2018-03-16T17:30:42.678Z,2
2018-03-16T18:35:45.831Z,7.5
2018-03-16T18:50:45.299Z,15.7
2018-03-16T19:25:45.281Z,14.5
2018-03-16T19:55:45.400Z,7.1
2018-03-16T20:15:45.328Z,8.7
2018-03-16T20:45:45.353Z,8.1
2018-03-16T21:00:45.667Z,12.9
2018-03-16T22:10:45.626Z,9
2018-03-16T22:40:45.621Z,9.2
2018-03-16T22:55:54.092Z,14.7
